Time;durP1;ratioP1;P1;durP2;ratioP2;P2;SDS_P1;SDS_P2;PMS_P1;PMS_P2;Temp;Humidity;BMP_temperature;BMP_pressure;BME280_temperature;BME280_humidity;BME280_pressure;Samples;Min_cycle;Max_cycle;Signal;HPM_P1;HPM_P2
2022/03/18 00:02:00;;;;;;;38.30;20.90;;;;;;;6.17;83.60;95224.44;5052542;28;20055;-49
2022/03/18 00:04:27;;;;;;;35.10;18.03;;;;;;;6.07;84.13;95228.50;5051867;28;20052;-53
2022/03/18 00:06:54;;;;;;;32.15;17.70;;;;;;;6.12;84.59;95230.19;5051107;28;20056;-49
2022/03/18 00:09:21;;;;;;;32.25;17.55;;;;;;;6.25;83.74;95233.56;5051741;28;20041;-55
2022/03/18 00:11:48;;;;;;;30.90;17.00;;;;;;;6.26;83.64;95230.50;5052050;28;20110;-50
2022/03/18 00:14:15;;;;;;;33.22;17.55;;;;;;;6.33;83.53;95227.13;5039286;28;20492;-46
2022/03/18 00:16:42;;;;;;;28.80;15.80;;;;;;;6.16;83.92;95233.78;5051996;28;20045;-51
2022/03/18 00:19:09;;;;;;;28.58;14.88;;;;;;;6.25;83.74;95228.13;5052115;28;20122;-53
2022/03/18 00:21:36;;;;;;;26.92;15.45;;;;;;;6.19;83.89;95224.88;5033988;28;20037;-56
2022/03/18 00:24:03;;;;;;;28.15;15.95;;;;;;;6.18;84.18;95239.66;5052108;28;20049;-56
2022/03/18 00:26:30;;;;;;;28.42;16.05;;;;;;;6.16;84.16;95233.78;5051881;28;20045;-52
2022/03/18 00:28:57;;;;;;;28.30;14.90;;;;;;;6.16;84.45;95228.31;5051891;28;20051;-47
2022/03/18 00:31:24;;;;;;;27.15;15.00;;;;;;;6.19;84.28;95230.31;5051370;28;20047;-46
2022/03/18 00:33:51;;;;;;;25.40;14.05;;;;;;;6.04;85.15;95229.22;5051075;28;20056;-51
2022/03/18 00:36:18;;;;;;;25.30;13.82;;;;;;;5.97;85.64;95239.94;5039009;28;20103;-56
2022/03/18 00:38:45;;;;;;;22.92;13.02;;;;;;;5.97;85.61;95234.50;5050512;28;20041;-50
2022/03/18 00:41:11;;;;;;;21.10;12.17;;;;;;;6.06;85.41;95229.66;5051780;28;20075;-48
2022/03/18 00:43:39;;;;;;;22.63;12.48;;;;;;;6.02;85.40;95236.16;5041502;28;20048;-49
2022/03/18 00:46:06;;;;;;;22.20;11.85;;;;;;;5.96;85.70;95238.38;5043266;28;20045;-48
2022/03/18 00:54:03;;;;;;;19.60;11.30;;;;;;;5.94;84.97;95237.91;5031567;28;20045;-50
2022/03/18 00:56:30;;;;;;;20.42;11.10;;;;;;;6.00;85.39;95240.03;5030935;28;20049;-49
2022/03/18 00:58:57;;;;;;;19.90;11.30;;;;;;;5.90;85.83;95237.81;5031479;28;20041;-50
2022/03/18 01:01:26;;;;;;;19.38;10.70;;;;;;;5.99;85.38;95243.88;5030848;28;20044;-50
2022/03/18 01:03:54;;;;;;;20.15;11.10;;;;;;;5.99;85.29;95240.38;5031584;28;20043;-50
2022/03/18 01:06:21;;;;;;;18.07;10.60;;;;;;;5.92;85.28;95232.81;5030766;28;20065;-55
2022/03/18 01:08:47;;;;;;;17.15;10.05;;;;;;;5.87;85.22;95240.44;5050555;28;20049;-50
2022/03/18 01:11:14;;;;;;;18.98;11.32;;;;;;;5.70;85.60;95234.22;5050811;28;20059;-57
2022/03/18 01:13:41;;;;;;;19.83;11.05;;;;;;;5.60;86.54;95238.25;5051313;28;20049;-51
2022/03/18 01:16:08;;;;;;;18.65;10.88;;;;;;;5.58;86.16;95231.59;5049671;28;20041;-49
2022/03/18 01:18:35;;;;;;;17.37;10.27;;;;;;;5.66;86.37;95235.28;5065433;28;20573;-49
2022/03/18 01:21:01;;;;;;;19.25;10.98;;;;;;;5.78;85.75;95233.25;5051033;28;20076;-50
2022/03/18 01:23:28;;;;;;;18.98;10.70;;;;;;;5.71;86.15;95230.34;5050355;28;20071;-49
2022/03/18 01:25:55;;;;;;;18.65;10.90;;;;;;;5.87;85.67;95235.78;5051125;28;20039;-51
2022/03/18 01:28:23;;;;;;;19.05;11.05;;;;;;;5.70;85.78;95231.50;5049239;28;20044;-51
2022/03/18 01:30:50;;;;;;;18.23;10.50;;;;;;;5.70;85.90;95236.94;5050770;28;20051;-50
2022/03/18 01:33:16;;;;;;;20.00;11.02;;;;;;;5.52;86.88;95230.28;5050413;28;20084;-48
2022/03/18 01:35:43;;;;;;;20.98;11.77;;;;;;;5.83;86.05;95234.91;5050695;28;20048;-50
2022/03/18 01:38:10;;;;;;;21.98;11.73;;;;;;;5.76;85.29;95240.97;5050748;28;20053;-53
2022/03/18 01:40:37;;;;;;;20.73;11.38;;;;;;;5.73;85.57;95232.72;5050335;28;20044;-50
2022/03/18 01:43:09;;;;;;;20.43;11.77;;;;;;;5.82;85.53;95240.72;5042818;28;20041;-51
2022/03/18 01:45:36;;;;;;;23.50;12.50;;;;;;;5.78;84.90;95243.38;5035581;28;20073;-52
2022/03/18 01:48:04;;;;;;;22.85;12.45;;;;;;;5.88;84.35;95242.81;5050421;28;20063;-55
2022/03/18 01:50:31;;;;;;;22.10;12.10;;;;;;;6.03;84.02;95243.97;5050049;28;20094;-51
2022/03/18 01:52:59;;;;;;;22.63;12.40;;;;;;;5.99;83.84;95245.81;5050225;28;20101;-50
2022/03/18 01:55:26;;;;;;;24.40;13.17;;;;;;;5.66;84.75;95248.91;5049907;28;20498;-48
2022/03/18 01:57:53;;;;;;;26.55;13.38;;;;;;;5.59;84.94;95247.59;5049189;28;20379;-46
2022/03/18 02:00:21;;;;;;;30.10;14.07;;;;;;;5.87;84.07;95251.34;5049329;28;20045;-47
2022/03/18 02:02:49;;;;;;;26.48;14.38;;;;;;;5.52;84.26;95258.28;5050035;28;20044;-47
2022/03/18 02:05:17;;;;;;;29.75;16.13;;;;;;;5.16;85.42;95259.28;5049657;28;20075;-52
2022/03/18 02:07:45;;;;;;;26.40;14.00;;;;;;;5.56;84.53;95256.44;5050133;28;20105;-50
2022/03/18 02:10:12;;;;;;;29.77;14.65;;;;;;;5.20;85.33;95252.00;5049981;28;20047;-53
2022/03/18 02:12:41;;;;;;;30.38;15.55;;;;;;;5.25;85.55;95254.47;5047879;28;20049;-54
2022/03/18 02:15:09;;;;;;;29.70;15.27;;;;;;;5.27;85.42;95259.56;5049953;28;20055;-48
2022/03/18 02:17:37;;;;;;;32.95;16.00;;;;;;;5.17;85.86;95253.50;5049438;28;20497;-53
2022/03/18 02:20:05;;;;;;;29.63;15.60;;;;;;;5.11;85.87;95257.59;5049989;28;20048;-54
2022/03/18 02:22:40;;;;;;;34.83;18.38;;;;;;;4.96;86.46;95264.56;5049533;28;20051;-53
2022/03/18 02:25:12;;;;;;;32.30;15.27;;;;;;;5.19;85.81;95253.94;5049986;28;20049;-50
2022/03/18 02:27:41;;;;;;;30.73;15.23;;;;;;;5.24;85.53;95263.00;5036166;28;20045;-56
2022/03/18 02:30:09;;;;;;;33.85;16.42;;;;;;;5.17;85.61;95264.38;5045213;28;20049;-50
2022/03/18 02:32:36;;;;;;;31.87;16.27;;;;;;;5.18;85.59;95267.88;5049353;28;20410;-50
2022/03/18 02:35:03;;;;;;;34.85;15.50;;;;;;;5.20;85.71;95258.22;5048317;28;20080;-55
2022/03/18 02:37:30;;;;;;;34.38;16.52;;;;;;;5.25;85.34;95262.66;5049084;28;20040;-52
2022/03/18 02:39:59;;;;;;;34.47;16.15;;;;;;;5.17;86.34;95266.28;5048100;28;20443;-49
2022/03/18 02:42:25;;;;;;;36.58;18.60;;;;;;;4.97;86.96;95266.16;5044746;28;20068;-50
2022/03/18 02:44:53;;;;;;;35.07;17.67;;;;;;;4.90;87.33;95265.16;5039766;28;20072;-54
2022/03/18 02:47:21;;;;;;;34.90;16.58;;;;;;;5.10;86.84;95264.19;5048823;28;20048;-56
2022/03/18 02:49:47;;;;;;;36.65;16.92;;;;;;;5.04;88.08;95273.72;5049214;28;20040;-51
2022/03/18 02:52:14;;;;;;;35.70;16.73;;;;;;;5.05;87.53;95269.88;5048980;28;20048;-55
2022/03/18 02:54:41;;;;;;;37.90;17.70;;;;;;;5.14;86.65;95267.78;5049450;28;20037;-49
2022/03/18 02:57:09;;;;;;;35.53;16.27;;;;;;;5.26;86.21;95260.72;5048994;28;20043;-46
2022/03/18 02:59:36;;;;;;;34.22;17.23;;;;;;;5.17;86.24;95267.09;5048439;28;20045;-47
2022/03/18 03:02:03;;;;;;;38.08;17.23;;;;;;;5.02;86.31;95270.56;5049332;28;20045;-49
2022/03/18 03:04:30;;;;;;;38.58;17.60;;;;;;;5.11;86.46;95263.06;5047536;28;20057;-51
2022/03/18 03:09:42;;;;;;;37.37;17.90;;;;;;;5.06;86.22;95271.44;5063955;28;20040;-53
2022/03/18 03:12:09;;;;;;;43.72;18.70;;;;;;;5.03;86.55;95276.78;5049174;28;20067;-48
2022/03/18 03:14:36;;;;;;;40.00;18.42;;;;;;;5.08;86.40;95268.38;5048857;28;20045;-49
2022/03/18 03:17:03;;;;;;;38.05;17.52;;;;;;;5.19;86.25;95277.63;5059608;28;20154;-50
2022/03/18 03:19:30;;;;;;;36.67;18.33;;;;;;;5.02;86.63;95276.00;5048598;28;20044;-50
2022/03/18 03:21:57;;;;;;;38.20;17.63;;;;;;;5.07;86.76;95277.66;5049175;28;20051;-56
2022/03/18 03:24:23;;;;;;;39.30;18.05;;;;;;;5.07;86.50;95274.94;5048342;28;20405;-50
2022/03/18 03:26:50;;;;;;;43.67;18.42;;;;;;;5.20;86.24;95277.28;5049210;28;20048;-50
2022/03/18 03:29:17;;;;;;;36.13;16.90;;;;;;;5.14;86.13;95286.84;5047921;28;20049;-47
2022/03/18 03:31:43;;;;;;;40.75;17.38;;;;;;;5.22;86.02;95284.31;5048889;28;20041;-56
2022/03/18 03:34:10;;;;;;;37.33;17.47;;;;;;;5.09;85.13;95280.84;5027783;28;20102;-52
2022/03/18 03:36:37;;;;;;;43.90;18.35;;;;;;;5.07;85.53;95288.56;5048389;28;20504;-51
2022/03/18 03:39:04;;;;;;;38.80;18.42;;;;;;;5.20;85.15;95292.81;5048847;28;20052;-55
2022/03/18 03:41:30;;;;;;;38.75;18.02;;;;;;;5.18;85.58;95290.44;5048402;28;20051;-50
2022/03/18 03:43:57;;;;;;;35.70;17.85;;;;;;;5.33;85.48;95288.91;5048817;28;20045;-53
2022/03/18 03:46:24;;;;;;;36.87;17.33;;;;;;;5.29;85.65;95289.94;5048374;28;20055;-48
2022/03/18 03:48:50;;;;;;;40.15;17.65;;;;;;;5.30;84.68;95295.03;5031241;28;20033;-53
2022/03/18 03:51:17;;;;;;;36.50;17.30;;;;;;;5.20;84.38;95287.38;5048153;28;20037;-54
2022/03/18 03:53:44;;;;;;;37.50;17.10;;;;;;;5.12;84.90;95291.81;5047425;28;20045;-51
2022/03/18 03:56:11;;;;;;;40.05;18.20;;;;;;;5.15;84.28;95295.78;5048686;28;20391;-49
2022/03/18 03:58:37;;;;;;;35.50;17.07;;;;;;;5.25;84.62;95298.03;5048129;28;20036;-54
2022/03/18 04:01:04;;;;;;;40.38;17.55;;;;;;;5.33;84.45;95299.00;5048587;28;20051;-54
2022/03/18 04:03:32;;;;;;;39.25;17.63;;;;;;;5.44;84.11;95293.84;5048153;28;20052;-55
2022/03/18 04:05:59;;;;;;;40.15;17.30;;;;;;;5.51;83.91;95305.69;5048678;28;20040;-50
2022/03/18 04:08:26;;;;;;;42.90;19.20;;;;;;;5.44;84.95;95304.75;5049190;28;20115;-51
2022/03/18 04:10:54;;;;;;;44.67;18.27;;;;;;;5.27;85.83;95303.09;5052107;28;20043;-51
2022/03/18 04:13:21;;;;;;;41.15;17.83;;;;;;;5.27;85.94;95312.09;5051956;28;20045;-49
2022/03/18 04:15:48;;;;;;;40.13;18.60;;;;;;;5.37;85.47;95314.31;5052087;28;20048;-50
2022/03/18 04:18:15;;;;;;;43.70;18.55;;;;;;;5.30;86.15;95316.03;5051919;28;20044;-54
2022/03/18 04:20:42;;;;;;;41.08;18.90;;;;;;;5.23;85.41;95313.88;5052252;28;20049;-51
2022/03/18 04:23:08;;;;;;;40.23;18.10;;;;;;;5.21;85.60;95313.44;5041494;28;20053;-51
2022/03/18 04:25:35;;;;;;;43.00;19.00;;;;;;;5.12;86.31;95313.59;5046771;28;20048;-48
2022/03/18 04:28:02;;;;;;;43.80;19.23;;;;;;;5.19;86.09;95318.44;5050779;28;20041;-54
2022/03/18 04:30:28;;;;;;;42.22;17.98;;;;;;;5.22;85.54;95322.41;5051245;28;20096;-48
2022/03/18 04:32:55;;;;;;;40.78;18.80;;;;;;;5.26;86.17;95323.31;5050885;28;20435;-53
2022/03/18 04:35:23;;;;;;;43.97;18.80;;;;;;;5.38;85.89;95326.75;5051260;28;20057;-51
2022/03/18 04:37:50;;;;;;;44.15;19.23;;;;;;;5.29;86.12;95323.41;5051900;28;20049;-46
2022/03/18 04:40:17;;;;;;;52.55;23.67;;;;;;;5.34;85.63;95325.88;5051270;28;20053;-47
2022/03/18 04:42:44;;;;;;;46.13;21.58;;;;;;;5.23;85.69;95321.25;5033739;28;20703;-52
2022/03/18 04:45:13;;;;;;;49.55;22.42;;;;;;;5.28;85.59;95327.25;5051490;28;20045;-53
2022/03/18 04:47:40;;;;;;;49.10;23.10;;;;;;;5.25;85.21;95317.09;5050657;28;20870;-50
2022/03/18 04:50:08;;;;;;;51.40;22.45;;;;;;;5.30;84.83;95318.75;5051390;28;20692;-55
2022/03/18 04:52:35;;;;;;;46.00;21.00;;;;;;;5.15;85.53;95323.00;5050848;28;20048;-49
2022/03/18 04:55:03;;;;;;;54.50;22.08;;;;;;;5.13;85.79;95317.91;5051449;28;20043;-54
2022/03/18 04:57:31;;;;;;;47.08;20.90;;;;;;;5.18;85.32;95320.38;5050697;28;20397;-52
2022/03/18 04:59:58;;;;;;;47.17;21.67;;;;;;;5.19;84.76;95318.44;5050762;28;20049;-55
2022/03/18 05:02:25;;;;;;;49.75;22.35;;;;;;;5.26;85.58;95320.59;5050845;28;20048;-47
2022/03/18 05:04:53;;;;;;;51.13;22.83;;;;;;;5.26;85.42;95321.38;5051535;28;20041;-47
2022/03/18 05:07:20;;;;;;;45.03;21.25;;;;;;;5.28;84.85;95329.19;5050755;28;20040;-51
2022/03/18 05:09:48;;;;;;;45.00;21.60;;;;;;;5.26;84.72;95329.53;5051193;28;20044;-49
2022/03/18 05:12:17;;;;;;;45.63;21.17;;;;;;;5.10;84.67;95334.91;5050620;28;20040;-53
2022/03/18 05:14:50;;;;;;;47.65;21.67;;;;;;;5.16;85.32;95341.69;5051369;28;20102;-51
2022/03/18 05:17:17;;;;;;;47.03;21.92;;;;;;;5.20;85.38;95344.53;5022297;28;20045;-52
2022/03/18 05:19:43;;;;;;;45.50;21.80;;;;;;;5.09;84.92;95337.97;5030577;28;20049;-49
2022/03/18 05:22:10;;;;;;;45.10;21.30;;;;;;;5.15;85.25;95342.03;5032416;28;20045;-50
2022/03/18 05:24:37;;;;;;;50.37;22.90;;;;;;;5.23;84.80;95354.72;5037353;28;20049;-54
2022/03/18 05:27:04;;;;;;;45.70;21.98;;;;;;;5.24;85.15;95352.81;5050779;28;20049;-51
2022/03/18 05:29:31;;;;;;;53.03;24.10;;;;;;;5.10;86.52;95361.34;5050132;28;20071;-51
2022/03/18 05:31:59;;;;;;;56.50;28.42;;;;;;;5.02;86.34;95352.19;5050696;28;20048;-51
2022/03/18 05:34:26;;;;;;;59.40;29.50;;;;;;;5.22;85.56;95361.31;5050342;28;20429;-51
2022/03/18 05:36:53;;;;;;;56.03;25.93;;;;;;;5.24;84.77;95356.31;5049299;28;20067;-50
2022/03/18 05:39:20;;;;;;;52.70;25.45;;;;;;;5.15;84.94;95367.34;5050085;28;20045;-49
2022/03/18 05:41:46;;;;;;;53.17;24.52;;;;;;;5.11;85.55;95373.81;5050802;28;20041;-53
2022/03/18 05:44:13;;;;;;;64.20;27.95;;;;;;;5.17;85.58;95373.22;5050372;28;20055;-48
2022/03/18 05:46:44;;;;;;;50.65;24.77;;;;;;;5.16;85.56;95384.47;5049529;28;20705;-48
2022/03/18 05:49:11;;;;;;;53.10;24.70;;;;;;;5.27;85.11;95369.25;5050211;28;20053;-54
2022/03/18 05:51:38;;;;;;;49.75;23.33;;;;;;;5.22;85.14;95369.47;5048307;28;20037;-52
2022/03/18 05:54:05;;;;;;;55.80;26.00;;;;;;;5.25;85.21;95370.69;5050227;28;20043;-47
2022/03/18 05:59:18;;;;;;;53.75;24.80;;;;;;;5.33;85.00;95372.47;5049401;28;20041;-50
2022/03/18 06:01:45;;;;;;;56.23;26.83;;;;;;;5.32;84.50;95371.69;5050116;28;20048;-51
2022/03/18 06:04:14;;;;;;;56.63;26.13;;;;;;;5.34;84.33;95377.59;5032281;28;20045;-55
2022/03/18 06:06:42;;;;;;;53.33;25.55;;;;;;;5.28;84.48;95380.91;5049190;28;20876;-50
2022/03/18 06:11:56;;;;;;;51.78;25.23;;;;;;;5.27;84.39;95384.75;5049253;28;20805;-52
2022/03/18 06:14:27;;;;;;;57.67;26.33;;;;;;;5.28;85.18;95384.41;5049559;28;20059;-54
2022/03/18 06:16:59;;;;;;;55.92;25.60;;;;;;;5.34;85.05;95374.09;5041115;28;20103;-49
2022/03/18 06:19:27;;;;;;;56.60;25.48;;;;;;;5.47;84.08;95382.97;5029600;28;20053;-47
2022/03/18 06:21:55;;;;;;;54.28;25.77;;;;;;;5.35;84.11;95384.63;5029956;28;20043;-50
2022/03/18 06:24:22;;;;;;;51.40;25.23;;;;;;;5.33;84.08;95386.91;5029301;28;20053;-49
2022/03/18 06:26:50;;;;;;;56.57;26.70;;;;;;;5.40;83.60;95384.38;5044887;28;20053;-49
2022/03/18 06:29:19;;;;;;;55.88;25.70;;;;;;;5.58;83.57;95389.53;5027888;28;20049;-55
2022/03/18 06:31:46;;;;;;;52.75;25.67;;;;;;;5.38;83.41;95386.66;5029150;28;20087;-53
2022/03/18 06:34:14;;;;;;;52.08;24.75;;;;;;;5.33;84.33;95397.81;5029587;28;20051;-53
2022/03/18 06:36:41;;;;;;;54.05;25.67;;;;;;;5.38;84.15;95400.25;5028568;28;20051;-49
2022/03/18 06:39:08;;;;;;;53.77;25.30;;;;;;;5.36;84.58;95407.19;5029646;28;20055;-56
2022/03/18 06:41:36;;;;;;;55.63;25.20;;;;;;;5.36;85.17;95407.19;5029072;28;20041;-57
2022/03/18 06:44:04;;;;;;;54.78;25.98;;;;;;;5.38;84.39;95404.91;5029806;28;20054;-49
2022/03/18 06:46:31;;;;;;;60.33;28.35;;;;;;;5.41;84.10;95412.38;5028892;28;20056;-50
2022/03/18 06:48:58;;;;;;;53.08;24.42;;;;;;;5.59;84.09;95415.59;5038830;28;20045;-50
2022/03/18 06:51:24;;;;;;;53.70;23.63;;;;;;;5.52;84.13;95413.50;5028907;28;20095;-51
2022/03/18 06:53:51;;;;;;;51.40;23.45;;;;;;;5.28;83.67;95427.97;5029104;28;20106;-52
2022/03/18 06:56:18;;;;;;;56.05;25.75;;;;;;;5.35;84.15;95419.22;5028934;28;20060;-54
2022/03/18 06:58:45;;;;;;;52.72;25.08;;;;;;;5.37;84.05;95420.47;5028043;28;20045;-53
2022/03/18 07:01:12;;;;;;;49.17;23.05;;;;;;;5.44;84.11;95430.75;5033438;28;20046;-47
2022/03/18 07:03:39;;;;;;;48.83;22.07;;;;;;;5.38;84.30;95434.88;5028865;28;20043;-49
2022/03/18 07:06:06;;;;;;;48.25;22.00;;;;;;;5.65;84.00;95424.34;5029269;28;20045;-50
2022/03/18 07:08:34;;;;;;;47.75;21.83;;;;;;;5.70;83.35;95424.09;5045931;28;20056;-50
2022/03/18 07:11:02;;;;;;;57.60;26.42;;;;;;;5.71;83.07;95417.50;5049158;28;20036;-55
2022/03/18 07:13:30;;;;;;;51.60;23.30;;;;;;;5.69;83.00;95428.72;5047431;28;20723;-54
2022/03/18 07:17:54;;;;;;;44.77;20.93;;;;;;;5.77;82.57;95421.56;5049214;28;20196;-55
2022/03/18 07:18:44;;;;;;;45.40;21.17;;;;;;;5.50;82.99;95426.66;5028403;28;21777;-53
2022/03/18 07:21:13;;;;;;;54.53;25.90;;;;;;;5.50;82.81;95428.59;5029113;28;20051;-54
2022/03/18 07:23:39;;;;;;;54.95;24.25;;;;;;;5.65;82.35;95427.06;5028129;28;20670;-52
2022/03/18 07:26:06;;;;;;;49.47;24.15;;;;;;;5.66;82.95;95425.94;5028742;28;20057;-48
2022/03/18 07:28:33;;;;;;;54.83;26.07;;;;;;;5.77;82.44;95427.00;5028386;28;20045;-48
2022/03/18 07:31:00;;;;;;;56.58;25.85;;;;;;;6.05;82.35;95426.22;5028510;28;20037;-55
2022/03/18 07:33:27;;;;;;;52.35;24.50;;;;;;;5.83;81.16;95431.06;5027934;28;20080;-50
2022/03/18 07:35:53;;;;;;;51.53;25.42;;;;;;;5.86;81.08;95429.59;5028622;28;20056;-57
2022/03/18 07:38:20;;;;;;;54.95;26.40;;;;;;;5.96;80.81;95438.06;5027663;28;20072;-50
2022/03/18 07:40:52;;;;;;;50.47;23.03;;;;;;;5.93;80.98;95435.22;5028162;28;20072;-55
2022/03/18 07:43:19;;;;;;;48.53;23.90;;;;;;;5.59;81.31;95435.50;5028861;28;20060;-50
2022/03/18 07:45:45;;;;;;;52.45;24.52;;;;;;;5.92;80.59;95436.38;5034052;28;20045;-56
2022/03/18 07:48:12;;;;;;;56.97;26.58;;;;;;;5.90;80.41;95433.19;5032760;28;20111;-47
2022/03/18 07:50:39;;;;;;;55.35;25.90;;;;;;;6.01;80.29;95439.75;5028550;28;20068;-52
2022/03/18 07:53:08;;;;;;;56.13;24.70;;;;;;;5.97;80.14;95436.13;5034412;28;20095;-50
2022/03/18 07:55:37;;;;;;;56.45;25.80;;;;;;;6.05;80.17;95434.41;5042998;28;20045;-54
2022/03/18 07:58:06;;;;;;;50.70;24.83;;;;;;;5.83;79.58;95439.22;5031162;28;20041;-50
2022/03/18 08:00:34;;;;;;;53.47;24.85;;;;;;;5.94;79.77;95431.38;5031755;28;20494;-48
2022/03/18 08:03:01;;;;;;;57.72;25.80;;;;;;;6.10;79.79;95440.38;5032405;28;20045;-54
2022/03/18 08:05:28;;;;;;;49.87;24.03;;;;;;;6.06;78.48;95442.22;5032005;28;20050;-49
2022/03/18 08:07:56;;;;;;;58.45;26.23;;;;;;;6.14;78.63;95448.66;5044304;28;20037;-47
2022/03/18 08:10:24;;;;;;;56.38;25.42;;;;;;;6.30;78.67;95444.03;5052025;28;20059;-55
2022/03/18 08:12:50;;;;;;;55.20;25.58;;;;;;;5.98;78.12;95441.25;5052551;28;20074;-49
2022/03/18 08:15:19;;;;;;;58.13;26.10;;;;;;;5.98;77.74;95445.91;5052002;28;20052;-49
2022/03/18 08:17:46;;;;;;;64.37;27.33;;;;;;;6.16;77.35;95447.16;5036468;28;20045;-48
2022/03/18 08:20:14;;;;;;;55.75;26.40;;;;;;;6.08;77.43;95450.84;5032560;28;20045;-49
2022/03/18 08:22:42;;;;;;;57.92;27.05;;;;;;;6.12;76.67;95450.94;5031853;28;20728;-50
2022/03/18 08:25:10;;;;;;;65.90;29.23;;;;;;;5.99;77.17;95455.66;5031023;28;20030;-49
2022/03/18 08:27:38;;;;;;;66.55;31.08;;;;;;;6.20;76.58;95453.50;5031535;28;20033;-52
2022/03/18 08:30:07;;;;;;;57.03;27.47;;;;;;;6.17;76.33;95456.13;5032179;28;20047;-48
2022/03/18 08:32:34;;;;;;;59.05;28.65;;;;;;;5.90;77.28;95463.19;5031526;28;20049;-51
2022/03/18 08:35:02;;;;;;;62.47;30.45;;;;;;;6.23;76.33;95460.19;5031861;28;20102;-50
2022/03/18 08:40:14;;;;;;;61.95;30.45;;;;;;;6.29;75.42;95463.44;5027500;28;20536;-47
2022/03/18 08:42:41;;;;;;;56.13;27.23;;;;;;;6.69;74.90;95457.84;5031379;28;20759;-54
2022/03/18 08:45:08;;;;;;;64.70;30.20;;;;;;;6.70;74.16;95458.63;5031912;28;20049;-49
2022/03/18 08:47:36;;;;;;;55.42;28.50;;;;;;;6.56;74.22;95459.88;5031614;28;20057;-46
2022/03/18 08:50:04;;;;;;;61.65;28.63;;;;;;;6.85;73.14;95459.78;5031861;28;20072;-46
2022/03/18 08:52:31;;;;;;;57.90;29.27;;;;;;;7.01;70.38;95457.81;5046491;28;20056;-50
2022/03/18 08:55:04;;;;;;;56.43;28.73;;;;;;;6.66;71.86;95471.38;5031425;28;20072;-54
2022/03/18 08:57:33;;;;;;;56.45;28.98;;;;;;;7.27;70.18;95467.38;5031260;28;20045;-47
2022/03/18 09:00:00;;;;;;;62.38;28.92;;;;;;;7.68;69.79;95467.84;5031214;28;20041;-50
2022/03/18 09:02:27;;;;;;;61.08;28.75;;;;;;;7.43;69.61;95468.13;5031675;28;20055;-50
2022/03/18 09:04:54;;;;;;;56.47;28.33;;;;;;;8.13;68.15;95467.19;5044982;28;20102;-49
2022/03/18 09:07:21;;;;;;;52.43;27.87;;;;;;;7.89;68.78;95476.50;5049489;28;20057;-50
2022/03/18 09:09:47;;;;;;;58.45;29.33;;;;;;;7.70;68.44;95480.00;5051219;28;20051;-49
2022/03/18 09:12:18;;;;;;;57.67;28.58;;;;;;;7.44;69.30;95479.81;5049586;28;20045;-48
2022/03/18 09:14:45;;;;;;;59.97;30.20;;;;;;;7.31;69.60;95479.16;5051245;28;20426;-52
2022/03/18 09:17:12;;;;;;;59.17;30.77;;;;;;;7.46;69.03;95474.78;5051079;28;20041;-53
2022/03/18 09:19:39;;;;;;;56.63;30.73;;;;;;;6.93;69.74;95477.91;5050383;28;20477;-49
2022/03/18 09:22:08;;;;;;;59.00;28.75;;;;;;;7.16;69.65;95488.94;5038209;28;20045;-49
2022/03/18 09:24:37;;;;;;;61.75;30.50;;;;;;;7.29;69.51;95495.91;5048777;28;20051;-47
2022/03/18 09:27:04;;;;;;;63.92;29.75;;;;;;;7.45;69.18;95489.63;5051065;28;20059;-50
2022/03/18 09:29:31;;;;;;;62.60;29.70;;;;;;;7.59;68.28;95493.44;5050145;28;20045;-46
2022/03/18 09:31:57;;;;;;;52.90;27.93;;;;;;;7.99;66.68;95486.84;5051102;28;20033;-48
2022/03/18 09:34:24;;;;;;;57.47;28.30;;;;;;;7.70;67.89;95490.16;5049166;28;20044;-52
2022/03/18 09:36:56;;;;;;;56.45;29.05;;;;;;;7.87;67.41;95491.66;5050932;28;20048;-46
2022/03/18 09:39:24;;;;;;;56.38;30.25;;;;;;;7.29;67.61;95497.84;5050291;28;20080;-49
2022/03/18 09:41:52;;;;;;;56.63;30.67;;;;;;;7.20;67.79;95498.00;5050565;28;20052;-51
2022/03/18 09:44:20;;;;;;;52.57;27.33;;;;;;;8.67;64.54;95500.22;5050005;28;20048;-49
2022/03/18 09:46:52;;;;;;;54.65;29.55;;;;;;;7.94;65.81;95498.06;5050729;28;20041;-45
2022/03/18 09:49:19;;;;;;;76.88;30.33;;;;;;;8.56;65.04;95489.88;5050108;28;20040;-50
2022/03/18 09:51:48;;;;;;;56.45;30.20;;;;;;;8.39;64.08;95496.59;5050528;28;20059;-47
2022/03/18 09:54:17;;;;;;;56.10;28.90;;;;;;;8.46;64.43;95495.19;5062035;28;20491;-46
2022/03/18 09:56:47;;;;;;;51.40;26.90;;;;;;;9.09;63.12;95497.41;5050396;28;20444;-47
2022/03/18 09:59:14;;;;;;;50.97;27.38;;;;;;;9.69;60.36;95502.22;5050126;28;20495;-49
2022/03/18 10:01:41;;;;;;;55.00;30.52;;;;;;;8.56;63.57;95509.03;5049528;28;20832;-47
2022/03/18 10:04:10;;;;;;;53.97;28.77;;;;;;;8.37;63.84;95509.03;5039847;28;20045;-49
2022/03/18 10:06:39;;;;;;;66.45;29.52;;;;;;;8.90;63.23;95506.50;5039449;28;20049;-47
2022/03/18 10:09:05;;;;;;;55.53;26.80;;;;;;;8.96;63.19;95504.25;5050074;28;20049;-47
2022/03/18 10:11:37;;;;;;;48.65;26.75;;;;;;;9.18;60.97;95502.66;5048389;28;20040;-47
2022/03/18 10:14:14;;;;;;;51.30;28.00;;;;;;;9.85;59.72;95499.28;5050312;28;20408;-49
2022/03/18 10:16:48;;;;;;;53.25;27.63;;;;;;;9.20;61.05;95511.28;5042250;28;20519;-49
2022/03/18 10:19:16;;;;;;;51.08;28.95;;;;;;;9.28;59.88;95507.50;5029730;28;20042;-48
2022/03/18 10:22:02;;;;;;;47.10;28.33;;;;;;;8.88;60.33;95510.78;5030193;28;20041;-51
2022/03/18 10:24:34;;;;;;;49.95;27.85;;;;;;;10.16;58.15;95522.00;5029660;28;20528;-46
2022/03/18 10:27:16;;;;;;;51.92;27.35;;;;;;;10.28;58.00;95516.28;5030163;28;20385;-47
2022/03/18 10:29:47;;;;;;;50.22;28.27;;;;;;;9.20;60.38;95517.56;5027636;28;20049;-49
2022/03/18 10:32:16;;;;;;;52.53;28.83;;;;;;;9.62;59.46;95520.50;5029378;28;20041;-47
2022/03/18 10:37:52;;;;;;;49.90;27.70;;;;;;;9.91;61.17;95510.72;5029415;28;20053;-54
2022/03/18 10:40:35;;;;;;;48.67;27.10;;;;;;;10.56;57.01;95523.28;5029201;28;20053;-55
2022/03/18 10:43:05;;;;;;;50.90;28.35;;;;;;;10.14;58.29;95525.13;5029903;28;20399;-55
2022/03/18 10:45:32;;;;;;;54.63;30.50;;;;;;;10.61;57.79;95514.72;5029077;28;20045;-50
2022/03/18 10:48:13;;;;;;;51.77;28.33;;;;;;;10.14;59.30;95521.59;5032270;28;20459;-47
2022/03/18 10:50:40;;;;;;;45.90;27.52;;;;;;;9.91;59.41;95517.00;5038464;28;21522;-50
2022/03/18 10:53:10;;;;;;;45.85;26.60;;;;;;;9.64;59.73;95518.19;5049369;28;20052;-49
2022/03/18 10:55:39;;;;;;;48.17;26.08;;;;;;;10.02;57.55;95530.88;5049033;28;20041;-52
2022/03/18 10:58:15;;;;;;;48.88;26.55;;;;;;;9.40;60.00;95531.16;5049197;28;20045;-47
2022/03/18 11:00:47;;;;;;;48.10;26.43;;;;;;;10.28;57.08;95530.00;5046687;28;20760;-51
2022/03/18 11:03:15;;;;;;;49.03;28.55;;;;;;;8.56;60.85;95533.66;5049127;28;20052;-46
2022/03/18 11:05:45;;;;;;;44.15;25.70;;;;;;;10.08;57.56;95525.81;5047865;28;20080;-48
2022/03/18 11:08:21;;;;;;;47.22;26.25;;;;;;;10.08;56.65;95532.13;5049199;28;20496;-50
2022/03/18 11:11:15;;;;;;;45.15;25.40;;;;;;;10.25;56.17;95536.22;5048180;28;20393;-48
2022/03/18 11:14:06;;;;;;;41.87;23.77;;;;;;;10.21;55.94;95532.66;5048299;28;20367;-53
2022/03/18 11:16:36;;;;;;;45.25;25.45;;;;;;;9.78;55.68;95541.13;5048666;28;20038;-46
2022/03/18 11:19:08;;;;;;;43.53;25.75;;;;;;;9.53;56.53;95534.47;5049084;28;20060;-49
2022/03/18 11:21:38;;;;;;;41.08;23.80;;;;;;;8.95;58.65;95519.91;5048611;28;20052;-47
2022/03/18 11:24:09;;;;;;;46.00;23.65;;;;;;;9.86;54.84;95533.78;5049045;28;20049;-53
2022/03/18 11:26:36;;;;;;;40.50;24.03;;;;;;;9.67;55.41;95523.72;5048676;28;20040;-50
2022/03/18 11:29:13;;;;;;;40.70;23.00;;;;;;;10.02;54.63;95525.38;5048900;28;20045;-47
2022/03/18 11:32:09;;;;;;;43.22;23.25;;;;;;;10.59;53.08;95528.03;5046792;28;20218;-47
2022/03/18 11:34:57;;;;;;;37.90;22.30;;;;;;;11.07;51.47;95517.09;5048366;28;20230;-49
2022/03/18 11:37:25;;;;;;;44.75;25.17;;;;;;;11.53;51.76;95516.69;5048256;28;20044;-51
2022/03/18 11:40:18;;;;;;;39.73;23.77;;;;;;;11.28;51.57;95518.44;5049110;28;20033;-47
2022/03/18 11:42:45;;;;;;;38.25;23.05;;;;;;;11.28;51.69;95523.94;5034883;28;20416;-51
2022/03/18 11:45:32;;;;;;;38.47;24.35;;;;;;;11.03;50.58;95512.72;5048896;28;20102;-56
2022/03/18 11:47:59;;;;;;;40.95;23.17;;;;;;;11.46;50.24;95513.09;5048156;28;20772;-50
2022/03/18 11:50:37;;;;;;;38.83;23.08;;;;;;;10.27;54.33;95514.69;5048248;28;20110;-48